sensor_id;sensor_type;location;lat;lon;timestamp;pressure;altitude;pressure_sealevel;temperature;humidity
41688;BME280;27371;42.686;23.362;2023-02-15T00:01:08;162535.50;;;1.29;76.77
41688;BME280;27371;42.686;23.362;2023-02-15T00:03:34;162530.22;;;1.27;76.93
41688;BME280;27371;42.686;23.362;2023-02-15T00:05:59;162508.97;;;1.19;76.90
41688;BME280;27371;42.686;23.362;2023-02-15T00:08:25;162524.88;;;1.25;76.94
41688;BME280;27371;42.686;23.362;2023-02-15T00:10:50;162528.84;;;1.26;76.99
41688;BME280;27371;42.686;23.362;2023-02-15T00:13:16;162530.22;;;1.27;77.07
41688;BME280;27371;42.686;23.362;2023-02-15T00:15:41;162543.47;;;1.32;77.20
41688;BME280;27371;42.686;23.362;2023-02-15T00:18:07;162562.06;;;1.39;76.98
41688;BME280;27371;42.686;23.362;2023-02-15T00:20:32;162563.41;;;1.40;76.98
41688;BME280;27371;42.686;23.362;2023-02-15T00:22:59;162566.09;;;1.41;76.91
41688;BME280;27371;42.686;23.362;2023-02-15T00:25:24;162570.03;;;1.42;76.96
41688;BME280;27371;42.686;23.362;2023-02-15T00:27:50;162582.00;;;1.47;76.88
41688;BME280;27371;42.686;23.362;2023-02-15T00:30:15;162556.75;;;1.37;76.70
41688;BME280;27371;42.686;23.362;2023-02-15T00:32:41;162582.00;;;1.47;76.52
41688;BME280;27371;42.686;23.362;2023-02-15T00:35:07;162585.97;;;1.48;76.69
41688;BME280;27371;42.686;23.362;2023-02-15T00:37:32;162560.75;;;1.39;76.85
41688;BME280;27371;42.686;23.362;2023-02-15T00:39:58;162564.72;;;1.40;75.65
41688;BME280;27371;42.686;23.362;2023-02-15T00:42:23;162510.28;;;1.19;75.61
41688;BME280;27371;42.686;23.362;2023-02-15T00:44:49;162474.44;;;1.05;76.30
41688;BME280;27371;42.686;23.362;2023-02-15T00:47:14;162421.28;;;0.85;77.52
41688;BME280;27371;42.686;23.362;2023-02-15T00:49:40;162435.88;;;0.91;78.31
41688;BME280;27371;42.686;23.362;2023-02-15T00:52:05;162469.09;;;1.03;78.73
41688;BME280;27371;42.686;23.362;2023-02-15T00:54:31;162463.78;;;1.01;78.98
41688;BME280;27371;42.686;23.362;2023-02-15T00:56:56;162437.25;;;0.91;78.89
41688;BME280;27371;42.686;23.362;2023-02-15T00:59:22;162466.47;;;1.02;78.93
41688;BME280;27371;42.686;23.362;2023-02-15T01:02:20;162483.69;;;1.09;78.91
41688;BME280;27371;42.686;23.362;2023-02-15T01:04:45;162450.50;;;0.96;78.93
41688;BME280;27371;42.686;23.362;2023-02-15T01:07:10;162442.53;;;0.93;78.74
41688;BME280;27371;42.686;23.362;2023-02-15T01:09:36;162459.81;;;1.00;79.01
41688;BME280;27371;42.686;23.362;2023-02-15T01:12:01;162454.50;;;0.98;78.78
41688;BME280;27371;42.686;23.362;2023-02-15T01:14:27;162434.56;;;0.90;78.95
41688;BME280;27371;42.686;23.362;2023-02-15T01:16:52;162439.88;;;0.92;78.82
41688;BME280;27371;42.686;23.362;2023-02-15T01:19:18;162458.44;;;0.99;78.86
41688;BME280;27371;42.686;23.362;2023-02-15T01:21:43;162433.25;;;0.89;78.81
41688;BME280;27371;42.686;23.362;2023-02-15T01:24:15;162416.00;;;0.83;78.93
41688;BME280;27371;42.686;23.362;2023-02-15T01:26:40;162449.16;;;0.96;79.15
41688;BME280;27371;42.686;23.362;2023-02-15T01:29:06;162465.09;;;1.02;79.06
41688;BME280;27371;42.686;23.362;2023-02-15T01:31:31;162490.34;;;1.11;78.79
41688;BME280;27371;42.686;23.362;2023-02-15T01:33:56;162445.22;;;0.94;78.43
41688;BME280;27371;42.686;23.362;2023-02-15T01:36:22;162478.38;;;1.07;78.40
41688;BME280;27371;42.686;23.362;2023-02-15T01:38:47;162495.69;;;1.14;78.27
41688;BME280;27371;42.686;23.362;2023-02-15T01:41:14;162486.34;;;1.10;78.13
41688;BME280;27371;42.686;23.362;2023-02-15T01:43:56;162523.56;;;1.24;78.19
41688;BME280;27371;42.686;23.362;2023-02-15T01:46:29;162524.88;;;1.25;77.93
41688;BME280;27371;42.686;23.362;2023-02-15T01:49:07;162508.97;;;1.19;77.85
41688;BME280;27371;42.686;23.362;2023-02-15T01:51:36;162528.84;;;1.26;77.96
41688;BME280;27371;42.686;23.362;2023-02-15T01:56:38;162473.09;;;1.05;77.01
41688;BME280;27371;42.686;23.362;2023-02-15T01:59:19;162443.84;;;0.94;77.65
41688;BME280;27371;42.686;23.362;2023-02-15T02:01:46;162406.69;;;0.79;78.20
41688;BME280;27371;42.686;23.362;2023-02-15T02:04:20;162418.63;;;0.84;79.31
41688;BME280;27371;42.686;23.362;2023-02-15T02:06:50;162402.72;;;0.78;80.07
41688;BME280;27371;42.686;23.362;2023-02-15T02:09:15;162414.63;;;0.82;80.31
41688;BME280;27371;42.686;23.362;2023-02-15T02:11:42;162398.72;;;0.76;80.33
41688;BME280;27371;42.686;23.362;2023-02-15T02:14:10;162402.72;;;0.78;80.42
41688;BME280;27371;42.686;23.362;2023-02-15T02:34:06;162398.72;;;0.76;80.74
41688;BME280;27371;42.686;23.362;2023-02-15T02:36:53;162358.91;;;0.61;80.65
41688;BME280;27371;42.686;23.362;2023-02-15T02:39:33;162412.00;;;0.81;80.71
41688;BME280;27371;42.686;23.362;2023-02-15T02:44:49;162417.31;;;0.83;80.74
41688;BME280;27371;42.686;23.362;2023-02-15T02:47:25;162433.25;;;0.89;80.75
41688;BME280;27371;42.686;23.362;2023-02-15T02:49:57;162439.88;;;0.92;80.34
41688;BME280;27371;42.686;23.362;2023-02-15T02:52:46;162451.84;;;0.97;80.26
41688;BME280;27371;42.686;23.362;2023-02-15T02:55:23;162474.44;;;1.05;80.19
41688;BME280;27371;42.686;23.362;2023-02-15T02:57:54;162486.34;;;1.10;80.00
41688;BME280;27371;42.686;23.362;2023-02-15T03:00:21;162493.00;;;1.13;79.87
41688;BME280;27371;42.686;23.362;2023-02-15T03:02:53;162497.00;;;1.14;79.78
41688;BME280;27371;42.686;23.362;2023-02-15T03:05:22;162511.59;;;1.20;79.73
41688;BME280;27371;42.686;23.362;2023-02-15T03:07:52;162508.97;;;1.19;79.54
41688;BME280;27371;42.686;23.362;2023-02-15T03:10:21;162508.97;;;1.19;79.31
41688;BME280;27371;42.686;23.362;2023-02-15T03:12:48;162459.81;;;1.00;77.91
41688;BME280;27371;42.686;23.362;2023-02-15T03:15:37;162404.03;;;0.78;78.48
41688;BME280;27371;42.686;23.362;2023-02-15T03:18:31;162381.47;;;0.70;80.04
41688;BME280;27371;42.686;23.362;2023-02-15T03:21:01;162419.97;;;0.84;80.74
41688;BME280;27371;42.686;23.362;2023-02-15T03:23:28;162445.22;;;0.94;80.85
41688;BME280;27371;42.686;23.362;2023-02-15T03:26:01;162454.50;;;0.98;81.08
41688;BME280;27371;42.686;23.362;2023-02-15T03:28:37;162471.75;;;1.04;81.14
41688;BME280;27371;42.686;23.362;2023-02-15T03:31:05;162473.09;;;1.05;81.02
41688;BME280;27371;42.686;23.362;2023-02-15T03:33:35;162481.06;;;1.08;81.11
41688;BME280;27371;42.686;23.362;2023-02-15T03:36:06;162481.06;;;1.08;81.02
41688;BME280;27371;42.686;23.362;2023-02-15T03:38:47;162482.38;;;1.08;80.87
41688;BME280;27371;42.686;23.362;2023-02-15T03:41:17;162473.09;;;1.05;81.08
41688;BME280;27371;42.686;23.362;2023-02-15T03:43:47;162486.34;;;1.10;80.87
41688;BME280;27371;42.686;23.362;2023-02-15T03:46:33;162475.75;;;1.06;81.17
41688;BME280;27371;42.686;23.362;2023-02-15T03:49:09;162470.41;;;1.04;81.27
41688;BME280;27371;42.686;23.362;2023-02-15T03:51:38;162454.50;;;0.98;81.42
41688;BME280;27371;42.686;23.362;2023-02-15T03:54:10;162479.69;;;1.07;81.39
41688;BME280;27371;42.686;23.362;2023-02-15T03:56:40;162478.38;;;1.07;81.46
41688;BME280;27371;42.686;23.362;2023-02-15T03:59:06;162470.41;;;1.04;81.55
41688;BME280;27371;42.686;23.362;2023-02-15T04:04:36;162559.44;;;1.38;81.14
41688;BME280;27371;42.686;23.362;2023-02-15T04:07:03;162568.72;;;1.42;80.30
41688;BME280;27371;42.686;23.362;2023-02-15T04:09:29;162592.63;;;1.51;80.33
41688;BME280;27371;42.686;23.362;2023-02-15T04:12:13;162608.53;;;1.57;80.04
41688;BME280;27371;42.686;23.362;2023-02-15T04:14:38;162635.13;;;1.67;79.80
41688;BME280;27371;42.686;23.362;2023-02-15T04:17:23;162653.75;;;1.74;79.50
41688;BME280;27371;42.686;23.362;2023-02-15T04:19:48;162669.69;;;1.81;79.28
41688;BME280;27371;42.686;23.362;2023-02-15T04:22:32;162673.69;;;1.82;78.97
41688;BME280;27371;42.686;23.362;2023-02-15T04:25:16;162677.66;;;1.84;77.83
41688;BME280;27371;42.686;23.362;2023-02-15T04:27:44;162632.50;;;1.66;77.37
41688;BME280;27371;42.686;23.362;2023-02-15T04:30:11;162620.50;;;1.62;77.89
41688;BME280;27371;42.686;23.362;2023-02-15T04:32:37;162616.56;;;1.60;78.72
41688;BME280;27371;42.686;23.362;2023-02-15T04:35:04;162620.50;;;1.62;79.25
41688;BME280;27371;42.686;23.362;2023-02-15T04:37:30;162617.88;;;1.61;79.76
41688;BME280;27371;42.686;23.362;2023-02-15T04:39:56;162643.09;;;1.70;79.68
41688;BME280;27371;42.686;23.362;2023-02-15T04:42:24;162637.81;;;1.68;80.09
41688;BME280;27371;42.686;23.362;2023-02-15T04:44:50;162640.47;;;1.69;79.64
41688;BME280;27371;42.686;23.362;2023-02-15T04:47:15;162657.72;;;1.76;79.50
41688;BME280;27371;42.686;23.362;2023-02-15T04:49:41;162639.13;;;1.69;79.81
41688;BME280;27371;42.686;23.362;2023-02-15T04:52:06;162652.44;;;1.74;79.61
41688;BME280;27371;42.686;23.362;2023-02-15T04:54:32;162660.41;;;1.77;79.20
41688;BME280;27371;42.686;23.362;2023-02-15T04:56:57;162665.69;;;1.79;79.32
41688;BME280;27371;42.686;23.362;2023-02-15T04:59:23;162669.69;;;1.81;79.12
41688;BME280;27371;42.686;23.362;2023-02-15T05:01:48;162663.03;;;1.78;79.06
41688;BME280;27371;42.686;23.362;2023-02-15T05:04:14;162661.72;;;1.77;79.11
41688;BME280;27371;42.686;23.362;2023-02-15T05:06:39;162669.69;;;1.81;79.03
41688;BME280;27371;42.686;23.362;2023-02-15T05:09:05;162677.66;;;1.84;78.90
41688;BME280;27371;42.686;23.362;2023-02-15T05:11:30;162705.56;;;1.94;78.70
41688;BME280;27371;42.686;23.362;2023-02-15T05:13:55;162838.50;;;2.45;82.78
41688;BME280;27371;42.686;23.362;2023-02-15T05:16:21;163087.13;;;3.41;81.43
41688;BME280;27371;42.686;23.362;2023-02-15T05:18:46;163075.19;;;3.37;77.14
41688;BME280;27371;42.686;23.362;2023-02-15T05:21:12;163039.28;;;3.23;76.32
41688;BME280;27371;42.686;23.362;2023-02-15T05:23:39;162994.03;;;3.05;75.45
41688;BME280;27371;42.686;23.362;2023-02-15T05:26:04;162974.06;;;2.98;75.01
41688;BME280;27371;42.686;23.362;2023-02-15T05:28:48;162954.16;;;2.90;74.70
41688;BME280;27371;42.686;23.362;2023-02-15T05:31:16;162954.16;;;2.90;74.21
41688;BME280;27371;42.686;23.362;2023-02-15T05:33:43;162867.75;;;2.57;73.43
41688;BME280;27371;42.686;23.362;2023-02-15T05:36:09;162815.84;;;2.37;74.11
41688;BME280;27371;42.686;23.362;2023-02-15T05:38:34;162789.31;;;2.27;75.85
41688;BME280;27371;42.686;23.362;2023-02-15T05:41:03;162773.31;;;2.20;76.73
41688;BME280;27371;42.686;23.362;2023-02-15T05:43:28;162754.75;;;2.13;77.13
41688;BME280;27371;42.686;23.362;2023-02-15T05:45:54;162744.09;;;2.09;77.42
41688;BME280;27371;42.686;23.362;2023-02-15T05:48:23;162750.72;;;2.12;77.38
41688;BME280;27371;42.686;23.362;2023-02-15T05:53:29;162757.38;;;2.14;77.10
41688;BME280;27371;42.686;23.362;2023-02-15T05:55:55;162770.69;;;2.19;77.52
41688;BME280;27371;42.686;23.362;2023-02-15T05:58:25;162769.34;;;2.19;77.51
41688;BME280;27371;42.686;23.362;2023-02-15T06:00:51;162757.38;;;2.14;77.22
41688;BME280;27371;42.686;23.362;2023-02-15T06:03:17;162761.38;;;2.16;76.95
41688;BME280;27371;42.686;23.362;2023-02-15T06:05:42;162760.06;;;2.15;77.19
41688;BME280;27371;42.686;23.362;2023-02-15T06:08:08;162746.78;;;2.10;77.11
41688;BME280;27371;42.686;23.362;2023-02-15T06:10:33;162762.72;;;2.16;77.26
41688;BME280;27371;42.686;23.362;2023-02-15T06:12:59;162790.63;;;2.27;77.45
41688;BME280;27371;42.686;23.362;2023-02-15T06:15:24;162807.88;;;2.34;77.06
41688;BME280;27371;42.686;23.362;2023-02-15T06:17:50;162829.16;;;2.42;76.53
41688;BME280;27371;42.686;23.362;2023-02-15T06:20:15;162845.09;;;2.48;76.09
41688;BME280;27371;42.686;23.362;2023-02-15T06:22:41;162853.13;;;2.51;75.86
41688;BME280;27371;42.686;23.362;2023-02-15T06:25:06;162859.75;;;2.54;75.46
41688;BME280;27371;42.686;23.362;2023-02-15T06:27:35;162878.34;;;2.61;74.54
41688;BME280;27371;42.686;23.362;2023-02-15T06:30:00;162854.44;;;2.52;74.56
41688;BME280;27371;42.686;23.362;2023-02-15T06:32:26;162831.84;;;2.43;75.05
41688;BME280;27371;42.686;23.362;2023-02-15T06:34:51;162830.47;;;2.42;75.67
41688;BME280;27371;42.686;23.362;2023-02-15T06:37:17;162830.47;;;2.42;75.94
41688;BME280;27371;42.686;23.362;2023-02-15T06:39:42;162791.94;;;2.28;76.36
41688;BME280;27371;42.686;23.362;2023-02-15T06:42:09;162846.47;;;2.49;76.08
41688;BME280;27371;42.686;23.362;2023-02-15T06:44:34;162839.81;;;2.46;75.80
41688;BME280;27371;42.686;23.362;2023-02-15T06:47:00;162919.56;;;2.77;76.71
41688;BME280;27371;42.686;23.362;2023-02-15T06:49:25;162918.25;;;2.76;74.79
41688;BME280;27371;42.686;23.362;2023-02-15T06:51:52;162923.53;;;2.78;74.53
41688;BME280;27371;42.686;23.362;2023-02-15T06:54:18;162924.91;;;2.79;74.33
41688;BME280;27371;42.686;23.362;2023-02-15T06:56:43;162930.19;;;2.81;74.12
41688;BME280;27371;42.686;23.362;2023-02-15T06:59:09;162927.56;;;2.80;74.14
41688;BME280;27371;42.686;23.362;2023-02-15T07:01:37;162934.22;;;2.82;73.92
41688;BME280;27371;42.686;23.362;2023-02-15T07:04:03;162967.47;;;2.95;74.10
41688;BME280;27371;42.686;23.362;2023-02-15T07:06:35;162987.38;;;3.03;74.05
41688;BME280;27371;42.686;23.362;2023-02-15T07:09:01;163041.91;;;3.24;73.28
41688;BME280;27371;42.686;23.362;2023-02-15T07:11:26;163033.94;;;3.21;72.63
41688;BME280;27371;42.686;23.362;2023-02-15T07:14:11;163093.78;;;3.44;72.15
41688;BME280;27371;42.686;23.362;2023-02-15T07:16:39;163109.72;;;3.50;71.39
41688;BME280;27371;42.686;23.362;2023-02-15T07:19:04;163152.31;;;3.66;71.10
41688;BME280;27371;42.686;23.362;2023-02-15T07:21:30;163173.59;;;3.74;70.77
41688;BME280;27371;42.686;23.362;2023-02-15T07:23:56;163188.22;;;3.80;70.19
41688;BME280;27371;42.686;23.362;2023-02-15T07:26:22;163200.22;;;3.85;70.17
41688;BME280;27371;42.686;23.362;2023-02-15T07:28:48;163201.53;;;3.85;69.25
41688;BME280;27371;42.686;23.362;2023-02-15T07:31:13;163143.00;;;3.63;69.06
41688;BME280;27371;42.686;23.362;2023-02-15T07:33:39;163132.41;;;3.59;69.67
41688;BME280;27371;42.686;23.362;2023-02-15T07:36:05;163119.09;;;3.53;69.64
41688;BME280;27371;42.686;23.362;2023-02-15T07:38:32;163099.13;;;3.46;70.37
41688;BME280;27371;42.686;23.362;2023-02-15T07:41:03;163117.75;;;3.53;70.39
41688;BME280;27371;42.686;23.362;2023-02-15T07:43:29;163129.69;;;3.57;70.07
41688;BME280;27371;42.686;23.362;2023-02-15T07:46:06;163162.97;;;3.70;69.76
41688;BME280;27371;42.686;23.362;2023-02-15T07:48:33;163169.63;;;3.73;69.72
41688;BME280;27371;42.686;23.362;2023-02-15T07:51:03;163145.66;;;3.64;69.30
41688;BME280;27371;42.686;23.362;2023-02-15T07:53:30;163161.66;;;3.70;69.17
41688;BME280;27371;42.686;23.362;2023-02-15T07:55:59;163172.28;;;3.74;69.10
41688;BME280;27371;42.686;23.362;2023-02-15T07:58:25;163164.31;;;3.71;69.02
41688;BME280;27371;42.686;23.362;2023-02-15T08:01:11;163164.31;;;3.71;69.17
41688;BME280;27371;42.686;23.362;2023-02-15T08:03:36;163206.88;;;3.87;69.32
41688;BME280;27371;42.686;23.362;2023-02-15T08:06:02;163224.16;;;3.94;68.61
41688;BME280;27371;42.686;23.362;2023-02-15T08:08:27;163253.44;;;4.05;68.21
41688;BME280;27371;42.686;23.362;2023-02-15T08:14:03;163304.06;;;4.24;67.72
41688;BME280;27371;42.686;23.362;2023-02-15T08:16:30;163328.00;;;4.34;67.11
41688;BME280;27371;42.686;23.362;2023-02-15T08:18:57;163329.31;;;4.34;66.91
41688;BME280;27371;42.686;23.362;2023-02-15T08:21:25;163322.66;;;4.32;66.58
41688;BME280;27371;42.686;23.362;2023-02-15T08:23:51;163330.63;;;4.35;66.80
41688;BME280;27371;42.686;23.362;2023-02-15T08:26:17;163330.63;;;4.35;66.70
41688;BME280;27371;42.686;23.362;2023-02-15T08:28:43;163326.66;;;4.33;66.17
41688;BME280;27371;42.686;23.362;2023-02-15T08:31:11;163278.75;;;4.15;66.04
41688;BME280;27371;42.686;23.362;2023-02-15T08:33:38;163260.09;;;4.08;66.22
41688;BME280;27371;42.686;23.362;2023-02-15T08:36:10;163241.50;;;4.00;66.88
41688;BME280;27371;42.686;23.362;2023-02-15T08:38:35;163240.16;;;4.00;66.97
41688;BME280;27371;42.686;23.362;2023-02-15T08:41:19;163257.44;;;4.07;66.67
41688;BME280;27371;42.686;23.362;2023-02-15T08:43:48;163281.38;;;4.16;66.45
41688;BME280;27371;42.686;23.362;2023-02-15T08:46:15;163281.38;;;4.16;66.43
41688;BME280;27371;42.686;23.362;2023-02-15T08:48:41;163296.03;;;4.21;66.67
41688;BME280;27371;42.686;23.362;2023-02-15T08:51:13;163312.03;;;4.28;66.21
41688;BME280;27371;42.686;23.362;2023-02-15T08:53:40;163304.06;;;4.24;65.57
41688;BME280;27371;42.686;23.362;2023-02-15T08:56:07;163331.97;;;4.35;65.54
41688;BME280;27371;42.686;23.362;2023-02-15T08:58:34;163353.25;;;4.43;65.66
41688;BME280;27371;42.686;23.362;2023-02-15T09:01:00;163389.19;;;4.57;64.91
41688;BME280;27371;42.686;23.362;2023-02-15T09:03:27;163414.50;;;4.67;64.23
41688;BME280;27371;42.686;23.362;2023-02-15T09:06:00;163399.88;;;4.61;63.51
41688;BME280;27371;42.686;23.362;2023-02-15T09:08:27;163445.13;;;4.79;63.29
41688;BME280;27371;42.686;23.362;2023-02-15T09:10:53;163473.09;;;4.89;62.54
41688;BME280;27371;42.686;23.362;2023-02-15T09:13:19;163509.03;;;5.03;61.91
41688;BME280;27371;42.686;23.362;2023-02-15T09:15:45;163511.69;;;5.04;61.43
41688;BME280;27371;42.686;23.362;2023-02-15T09:18:11;163517.03;;;5.06;61.15
41688;BME280;27371;42.686;23.362;2023-02-15T09:20:37;163523.69;;;5.09;60.82
41688;BME280;27371;42.686;23.362;2023-02-15T09:23:02;163522.38;;;5.08;60.89
41688;BME280;27371;42.686;23.362;2023-02-15T09:25:28;163543.69;;;5.17;60.69
41688;BME280;27371;42.686;23.362;2023-02-15T09:27:54;163475.75;;;4.90;60.66
41688;BME280;27371;42.686;23.362;2023-02-15T09:30:19;163459.78;;;4.84;61.51
41688;BME280;27371;42.686;23.362;2023-02-15T09:32:45;163465.09;;;4.86;61.70
41688;BME280;27371;42.686;23.362;2023-02-15T09:35:13;163487.75;;;4.95;61.68
41688;BME280;27371;42.686;23.362;2023-02-15T09:37:39;163517.03;;;5.06;61.55
41688;BME280;27371;42.686;23.362;2023-02-15T09:40:05;163555.69;;;5.21;61.38
41688;BME280;27371;42.686;23.362;2023-02-15T09:45:42;163578.31;;;5.30;60.50
41688;BME280;27371;42.686;23.362;2023-02-15T09:48:40;163574.28;;;5.28;59.99
41688;BME280;27371;42.686;23.362;2023-02-15T09:51:33;163587.63;;;5.33;60.41
41688;BME280;27371;42.686;23.362;2023-02-15T09:59:25;163674.22;;;5.67;59.35
41688;BME280;27371;42.686;23.362;2023-02-15T10:04:57;163680.88;;;5.69;58.36
41688;BME280;27371;42.686;23.362;2023-02-15T10:07:39;163678.22;;;5.68;58.77
41688;BME280;27371;42.686;23.362;2023-02-15T10:20:49;163736.84;;;5.91;57.90
41688;BME280;27371;42.686;23.362;2023-02-15T10:23:45;163680.88;;;5.69;58.40
41688;BME280;27371;42.686;23.362;2023-02-15T10:26:43;163660.88;;;5.62;58.75
41688;BME280;27371;42.686;23.362;2023-02-15T10:29:30;163635.59;;;5.52;58.63
41688;BME280;27371;42.686;23.362;2023-02-15T10:32:09;163667.53;;;5.64;58.34
41688;BME280;27371;42.686;23.362;2023-02-15T10:34:46;163678.22;;;5.68;58.19
41688;BME280;27371;42.686;23.362;2023-02-15T10:40:54;163646.22;;;5.56;58.28
41688;BME280;27371;42.686;23.362;2023-02-15T10:43:56;163672.88;;;5.66;58.37
41688;BME280;27371;42.686;23.362;2023-02-15T11:08:24;163754.19;;;5.97;57.44
41688;BME280;27371;42.686;23.362;2023-02-15T11:10:54;163786.19;;;6.10;57.01
41688;BME280;27371;42.686;23.362;2023-02-15T11:13:26;163778.22;;;6.07;56.98
41688;BME280;27371;42.686;23.362;2023-02-15T11:15:57;163743.56;;;5.93;56.79
41688;BME280;27371;42.686;23.362;2023-02-15T11:18:32;163671.56;;;5.66;57.38
41688;BME280;27371;42.686;23.362;2023-02-15T11:21:21;163635.59;;;5.52;57.77
41688;BME280;27371;42.686;23.362;2023-02-15T11:23:48;163635.59;;;5.52;57.89
41688;BME280;27371;42.686;23.362;2023-02-15T11:26:36;163646.22;;;5.56;58.10
41688;BME280;27371;42.686;23.362;2023-02-15T11:31:46;163671.56;;;5.66;58.46
41688;BME280;27371;42.686;23.362;2023-02-15T11:34:34;163682.19;;;5.70;58.00
41688;BME280;27371;42.686;23.362;2023-02-15T11:37:08;163655.53;;;5.59;57.64
41688;BME280;27371;42.686;23.362;2023-02-15T11:39:35;163655.53;;;5.59;57.86
41688;BME280;27371;42.686;23.362;2023-02-15T11:42:21;163664.91;;;5.63;57.95
41688;BME280;27371;42.686;23.362;2023-02-15T11:47:21;163698.16;;;5.76;57.66
41688;BME280;27371;42.686;23.362;2023-02-15T11:49:47;163696.84;;;5.75;57.80
41688;BME280;27371;42.686;23.362;2023-02-15T11:52:14;163688.84;;;5.72;57.40
41688;BME280;27371;42.686;23.362;2023-02-15T11:54:44;163680.88;;;5.69;57.59
41688;BME280;27371;42.686;23.362;2023-02-15T11:59:43;163663.56;;;5.63;57.78
41688;BME280;27371;42.686;23.362;2023-02-15T12:02:23;163683.50;;;5.70;57.42
41688;BME280;27371;42.686;23.362;2023-02-15T12:04:56;163672.88;;;5.66;57.73
41688;BME280;27371;42.686;23.362;2023-02-15T12:07:36;163675.53;;;5.67;57.41
41688;BME280;27371;42.686;23.362;2023-02-15T12:10:23;163668.88;;;5.65;57.53
41688;BME280;27371;42.686;23.362;2023-02-15T12:13:09;163616.91;;;5.45;58.16
41688;BME280;27371;42.686;23.362;2023-02-15T12:15:35;163574.28;;;5.28;58.19
41688;BME280;27371;42.686;23.362;2023-02-15T12:18:01;163580.97;;;5.31;58.41
41688;BME280;27371;42.686;23.362;2023-02-15T12:20:34;163588.94;;;5.34;58.69
41688;BME280;27371;42.686;23.362;2023-02-15T12:23:05;163595.59;;;5.36;58.67
41688;BME280;27371;42.686;23.362;2023-02-15T12:25:48;163640.88;;;5.54;58.10
41688;BME280;27371;42.686;23.362;2023-02-15T12:28:36;163658.22;;;5.61;58.02
41688;BME280;27371;42.686;23.362;2023-02-15T12:31:09;163690.19;;;5.73;57.75
41688;BME280;27371;42.686;23.362;2023-02-15T12:33:43;163704.84;;;5.78;57.48
41688;BME280;27371;42.686;23.362;2023-02-15T12:36:22;163742.19;;;5.93;56.84
41688;BME280;27371;42.686;23.362;2023-02-15T12:41:44;163790.16;;;6.11;56.27
41688;BME280;27371;42.686;23.362;2023-02-15T12:44:17;163812.81;;;6.20;56.29
41688;BME280;27371;42.686;23.362;2023-02-15T12:46:57;163836.84;;;6.29;56.06
41688;BME280;27371;42.686;23.362;2023-02-15T12:49:23;163828.84;;;6.26;55.65
41688;BME280;27371;42.686;23.362;2023-02-15T12:52:00;163807.53;;;6.18;55.30
41688;BME280;27371;42.686;23.362;2023-02-15T12:54:31;163807.53;;;6.18;55.03
41688;BME280;27371;42.686;23.362;2023-02-15T12:56:59;163783.50;;;6.09;55.00
41688;BME280;27371;42.686;23.362;2023-02-15T12:59:24;163806.16;;;6.17;55.27
41688;BME280;27371;42.686;23.362;2023-02-15T13:01:52;163827.47;;;6.25;54.92
41688;BME280;27371;42.686;23.362;2023-02-15T13:04:28;163800.84;;;6.15;55.33
41688;BME280;27371;42.686;23.362;2023-02-15T13:06:57;163748.84;;;5.95;55.82
41688;BME280;27371;42.686;23.362;2023-02-15T13:12:10;163750.22;;;5.96;55.70
41688;BME280;27371;42.686;23.362;2023-02-15T13:14:36;163760.84;;;6.00;55.31
41688;BME280;27371;42.686;23.362;2023-02-15T13:17:03;163787.53;;;6.10;55.55
41688;BME280;27371;42.686;23.362;2023-02-15T13:19:41;163802.19;;;6.16;54.90
41688;BME280;27371;42.686;23.362;2023-02-15T13:22:14;163811.50;;;6.19;55.06
41688;BME280;27371;42.686;23.362;2023-02-15T13:27:13;163872.81;;;6.43;55.10
41688;BME280;27371;42.686;23.362;2023-02-15T13:29:43;163884.78;;;6.47;54.60
41688;BME280;27371;42.686;23.362;2023-02-15T13:32:28;163891.44;;;6.50;54.50
41688;BME280;27371;42.686;23.362;2023-02-15T13:34:57;163895.47;;;6.52;54.60
41688;BME280;27371;42.686;23.362;2023-02-15T13:37:51;163903.47;;;6.55;54.71
41688;BME280;27371;42.686;23.362;2023-02-15T13:40:25;163928.81;;;6.64;54.33
41688;BME280;27371;42.686;23.362;2023-02-15T13:42:57;163938.13;;;6.68;53.99
41688;BME280;27371;42.686;23.362;2023-02-15T13:45:36;163932.78;;;6.66;54.24
41688;BME280;27371;42.686;23.362;2023-02-15T13:48:22;163967.47;;;6.79;54.21
41688;BME280;27371;42.686;23.362;2023-02-15T14:01:38;163839.47;;;6.30;55.34
41688;BME280;27371;42.686;23.362;2023-02-15T14:04:36;163792.88;;;6.12;55.66
41688;BME280;27371;42.686;23.362;2023-02-15T14:15:44;163751.53;;;5.96;56.83
41688;BME280;27371;42.686;23.362;2023-02-15T14:26:06;163762.19;;;6.00;56.65
41688;BME280;27371;42.686;23.362;2023-02-15T14:28:43;163760.84;;;6.00;56.83
41688;BME280;27371;42.686;23.362;2023-02-15T14:31:13;163768.84;;;6.03;56.98
41688;BME280;27371;42.686;23.362;2023-02-15T14:33:43;163750.22;;;5.96;56.86
41688;BME280;27371;42.686;23.362;2023-02-15T14:36:16;163751.53;;;5.96;57.20
41688;BME280;27371;42.686;23.362;2023-02-15T14:42:13;163767.53;;;6.02;57.09
41688;BME280;27371;42.686;23.362;2023-02-15T14:44:49;163747.53;;;5.95;57.43
41688;BME280;27371;42.686;23.362;2023-02-15T14:47:26;163716.84;;;5.83;57.54
41688;BME280;27371;42.686;23.362;2023-02-15T14:49:55;163686.22;;;5.71;57.75
41688;BME280;27371;42.686;23.362;2023-02-15T14:52:20;163630.25;;;5.50;58.37
41688;BME280;27371;42.686;23.362;2023-02-15T14:59:41;163558.31;;;5.22;59.66
41688;BME280;27371;42.686;23.362;2023-02-15T15:04:36;163517.03;;;5.06;60.22
41688;BME280;27371;42.686;23.362;2023-02-15T15:07:25;163511.69;;;5.04;60.36
41688;BME280;27371;42.686;23.362;2023-02-15T15:12:46;163487.75;;;4.95;60.35
41688;BME280;27371;42.686;23.362;2023-02-15T15:34:22;163470.44;;;4.88;60.22
41688;BME280;27371;42.686;23.362;2023-02-15T15:50:43;163258.78;;;4.07;62.97
41688;BME280;27371;42.686;23.362;2023-02-15T15:53:23;163236.16;;;3.98;63.74
41688;BME280;27371;42.686;23.362;2023-02-15T15:55:54;163250.78;;;4.04;63.59